sensor_id;sensor_type;location;lat;lon;timestamp;temperature;humidity
39045;DHT22;52192;52.002;5.956;2023-09-12T00:00:49;24.20;76.50
39045;DHT22;52192;52.002;5.956;2023-09-12T00:03:19;24.20;76.50
39045;DHT22;52192;52.002;5.956;2023-09-12T00:05:53;24.20;76.40
39045;DHT22;52192;52.002;5.956;2023-09-12T00:08:18;24.20;76.40
39045;DHT22;52192;52.002;5.956;2023-09-12T00:10:44;24.20;76.50
39045;DHT22;52192;52.002;5.956;2023-09-12T00:13:10;24.20;76.40
39045;DHT22;52192;52.002;5.956;2023-09-12T00:15:36;24.20;76.30
39045;DHT22;52192;52.002;5.956;2023-09-12T00:18:01;24.20;76.20
39045;DHT22;52192;52.002;5.956;2023-09-12T00:20:27;24.20;76.40
39045;DHT22;52192;52.002;5.956;2023-09-12T00:22:53;24.20;76.50
39045;DHT22;52192;52.002;5.956;2023-09-12T00:25:20;24.10;76.60
39045;DHT22;52192;52.002;5.956;2023-09-12T00:27:46;24.10;76.70
39045;DHT22;52192;52.002;5.956;2023-09-12T00:30:13;24.00;76.70
39045;DHT22;52192;52.002;5.956;2023-09-12T00:32:39;24.00;77.00
39045;DHT22;52192;52.002;5.956;2023-09-12T00:35:05;23.90;77.20
39045;DHT22;52192;52.002;5.956;2023-09-12T00:37:30;23.90;77.30
39045;DHT22;52192;52.002;5.956;2023-09-12T00:39:56;23.80;77.40
39045;DHT22;52192;52.002;5.956;2023-09-12T00:42:25;23.80;77.60
39045;DHT22;52192;52.002;5.956;2023-09-12T00:44:51;23.80;77.70
39045;DHT22;52192;52.002;5.956;2023-09-12T00:47:17;23.70;77.70
39045;DHT22;52192;52.002;5.956;2023-09-12T00:49:43;23.70;77.70
39045;DHT22;52192;52.002;5.956;2023-09-12T00:52:10;23.70;78.00
39045;DHT22;52192;52.002;5.956;2023-09-12T00:54:36;23.70;78.10
39045;DHT22;52192;52.002;5.956;2023-09-12T00:57:02;23.70;78.10
39045;DHT22;52192;52.002;5.956;2023-09-12T00:59:28;23.70;77.90
39045;DHT22;52192;52.002;5.956;2023-09-12T01:01:54;23.70;77.80
39045;DHT22;52192;52.002;5.956;2023-09-12T01:04:20;23.70;77.60
39045;DHT22;52192;52.002;5.956;2023-09-12T01:06:45;23.70;77.30
39045;DHT22;52192;52.002;5.956;2023-09-12T01:09:13;23.70;77.10
39045;DHT22;52192;52.002;5.956;2023-09-12T01:11:40;23.70;76.90
39045;DHT22;52192;52.002;5.956;2023-09-12T01:14:06;23.70;76.90
39045;DHT22;52192;52.002;5.956;2023-09-12T01:16:32;23.60;76.90
39045;DHT22;52192;52.002;5.956;2023-09-12T01:18:57;23.60;76.90
39045;DHT22;52192;52.002;5.956;2023-09-12T01:21:53;23.60;76.90
39045;DHT22;52192;52.002;5.956;2023-09-12T01:24:52;23.60;76.80
39045;DHT22;52192;52.002;5.956;2023-09-12T01:27:32;23.50;76.80
39045;DHT22;52192;52.002;5.956;2023-09-12T01:30:02;23.40;76.90
39045;DHT22;52192;52.002;5.956;2023-09-12T01:32:29;23.40;77.00
39045;DHT22;52192;52.002;5.956;2023-09-12T01:34:56;23.30;77.00
39045;DHT22;52192;52.002;5.956;2023-09-12T01:37:22;23.20;76.90
39045;DHT22;52192;52.002;5.956;2023-09-12T01:39:48;23.20;76.80
39045;DHT22;52192;52.002;5.956;2023-09-12T01:42:17;23.20;76.70
39045;DHT22;52192;52.002;5.956;2023-09-12T01:44:44;23.20;76.60
39045;DHT22;52192;52.002;5.956;2023-09-12T01:47:11;23.10;76.60
39045;DHT22;52192;52.002;5.956;2023-09-12T01:49:42;23.10;76.70
39045;DHT22;52192;52.002;5.956;2023-09-12T01:52:09;23.10;76.60
39045;DHT22;52192;52.002;5.956;2023-09-12T01:54:35;23.10;76.60
39045;DHT22;52192;52.002;5.956;2023-09-12T01:57:02;23.10;76.50
39045;DHT22;52192;52.002;5.956;2023-09-12T01:59:29;23.00;76.30
39045;DHT22;52192;52.002;5.956;2023-09-12T02:01:55;23.00;76.40
39045;DHT22;52192;52.002;5.956;2023-09-12T02:04:20;22.90;76.40
39045;DHT22;52192;52.002;5.956;2023-09-12T02:06:46;22.90;76.30
39045;DHT22;52192;52.002;5.956;2023-09-12T02:09:12;22.90;76.30
39045;DHT22;52192;52.002;5.956;2023-09-12T02:11:37;22.80;76.40
39045;DHT22;52192;52.002;5.956;2023-09-12T02:14:03;22.80;76.40
39045;DHT22;52192;52.002;5.956;2023-09-12T02:16:31;22.80;76.50
39045;DHT22;52192;52.002;5.956;2023-09-12T02:18:56;22.70;76.50
39045;DHT22;52192;52.002;5.956;2023-09-12T02:21:22;22.70;76.50
39045;DHT22;52192;52.002;5.956;2023-09-12T02:23:48;22.70;76.50
39045;DHT22;52192;52.002;5.956;2023-09-12T02:26:13;22.60;76.50
39045;DHT22;52192;52.002;5.956;2023-09-12T02:28:39;22.60;76.50
39045;DHT22;52192;52.002;5.956;2023-09-12T02:31:10;22.60;76.40
39045;DHT22;52192;52.002;5.956;2023-09-12T02:33:38;22.60;76.30
39045;DHT22;52192;52.002;5.956;2023-09-12T02:36:04;22.50;76.30
39045;DHT22;52192;52.002;5.956;2023-09-12T02:38:30;22.50;76.40
39045;DHT22;52192;52.002;5.956;2023-09-12T02:40:56;22.40;76.40
39045;DHT22;52192;52.002;5.956;2023-09-12T02:43:22;22.40;76.40
39045;DHT22;52192;52.002;5.956;2023-09-12T02:45:47;22.40;76.30
39045;DHT22;52192;52.002;5.956;2023-09-12T02:48:13;22.40;76.40
39045;DHT22;52192;52.002;5.956;2023-09-12T02:50:39;22.30;76.30
39045;DHT22;52192;52.002;5.956;2023-09-12T02:53:04;22.30;76.40
39045;DHT22;52192;52.002;5.956;2023-09-12T02:55:31;22.30;76.50
39045;DHT22;52192;52.002;5.956;2023-09-12T02:57:57;22.20;76.40
39045;DHT22;52192;52.002;5.956;2023-09-12T03:00:23;22.20;76.40
39045;DHT22;52192;52.002;5.956;2023-09-12T03:02:49;22.20;76.50
39045;DHT22;52192;52.002;5.956;2023-09-12T03:05:14;22.20;76.50
39045;DHT22;52192;52.002;5.956;2023-09-12T03:07:40;22.10;76.40
39045;DHT22;52192;52.002;5.956;2023-09-12T03:10:06;22.10;76.40
39045;DHT22;52192;52.002;5.956;2023-09-12T03:12:32;22.10;76.40
39045;DHT22;52192;52.002;5.956;2023-09-12T03:14:57;22.10;76.40
39045;DHT22;52192;52.002;5.956;2023-09-12T03:17:23;22.00;76.40
39045;DHT22;52192;52.002;5.956;2023-09-12T03:19:49;22.00;76.30
39045;DHT22;52192;52.002;5.956;2023-09-12T03:22:15;22.00;76.30
39045;DHT22;52192;52.002;5.956;2023-09-12T03:24:40;22.00;76.40
39045;DHT22;52192;52.002;5.956;2023-09-12T03:27:07;21.90;76.40
39045;DHT22;52192;52.002;5.956;2023-09-12T03:29:33;21.90;76.50
39045;DHT22;52192;52.002;5.956;2023-09-12T03:31:59;21.90;76.40
39045;DHT22;52192;52.002;5.956;2023-09-12T03:34:24;21.90;76.40
39045;DHT22;52192;52.002;5.956;2023-09-12T03:36:50;21.90;76.40
39045;DHT22;52192;52.002;5.956;2023-09-12T03:39:16;21.90;76.40
39045;DHT22;52192;52.002;5.956;2023-09-12T03:41:41;21.80;76.30
39045;DHT22;52192;52.002;5.956;2023-09-12T03:44:07;21.80;76.30
39045;DHT22;52192;52.002;5.956;2023-09-12T03:46:33;21.80;76.40
39045;DHT22;52192;52.002;5.956;2023-09-12T03:48:59;21.80;76.60
39045;DHT22;52192;52.002;5.956;2023-09-12T03:51:24;21.70;76.60
39045;DHT22;52192;52.002;5.956;2023-09-12T03:53:50;21.70;77.20
39045;DHT22;52192;52.002;5.956;2023-09-12T03:56:16;21.70;76.60
39045;DHT22;52192;52.002;5.956;2023-09-12T03:58:45;21.80;76.80
39045;DHT22;52192;52.002;5.956;2023-09-12T04:01:11;21.70;76.70
39045;DHT22;52192;52.002;5.956;2023-09-12T04:03:36;21.70;76.70
39045;DHT22;52192;52.002;5.956;2023-09-12T04:06:02;21.80;76.90
39045;DHT22;52192;52.002;5.956;2023-09-12T04:08:28;21.80;76.90
39045;DHT22;52192;52.002;5.956;2023-09-12T04:10:53;21.80;77.10
39045;DHT22;52192;52.002;5.956;2023-09-12T04:13:19;21.80;77.20
39045;DHT22;52192;52.002;5.956;2023-09-12T04:15:45;21.80;77.20
39045;DHT22;52192;52.002;5.956;2023-09-12T04:18:11;21.80;77.30
39045;DHT22;52192;52.002;5.956;2023-09-12T04:20:36;21.90;77.50
39045;DHT22;52192;52.002;5.956;2023-09-12T04:23:03;21.90;77.50
39045;DHT22;52192;52.002;5.956;2023-09-12T04:25:29;21.80;77.50
39045;DHT22;52192;52.002;5.956;2023-09-12T04:27:55;21.80;77.80
39045;DHT22;52192;52.002;5.956;2023-09-12T04:30:21;21.80;77.80
39045;DHT22;52192;52.002;5.956;2023-09-12T04:32:47;21.90;77.90
39045;DHT22;52192;52.002;5.956;2023-09-12T04:35:13;21.90;77.90
39045;DHT22;52192;52.002;5.956;2023-09-12T04:37:38;21.90;78.00
39045;DHT22;52192;52.002;5.956;2023-09-12T04:40:05;21.90;78.20
39045;DHT22;52192;52.002;5.956;2023-09-12T04:42:32;21.90;78.20
39045;DHT22;52192;52.002;5.956;2023-09-12T04:44:57;22.00;78.20
39045;DHT22;52192;52.002;5.956;2023-09-12T04:47:23;22.00;78.30
39045;DHT22;52192;52.002;5.956;2023-09-12T04:49:49;22.00;78.30
39045;DHT22;52192;52.002;5.956;2023-09-12T04:52:15;22.00;78.40
39045;DHT22;52192;52.002;5.956;2023-09-12T04:54:40;22.00;78.60
39045;DHT22;52192;52.002;5.956;2023-09-12T04:57:07;22.00;78.80
39045;DHT22;52192;52.002;5.956;2023-09-12T04:59:33;22.00;79.10
39045;DHT22;52192;52.002;5.956;2023-09-12T05:01:59;21.90;79.50
39045;DHT22;52192;52.002;5.956;2023-09-12T05:04:24;21.90;79.70
39045;DHT22;52192;52.002;5.956;2023-09-12T05:06:50;22.00;79.70
39045;DHT22;52192;52.002;5.956;2023-09-12T05:09:16;22.00;79.70
39045;DHT22;52192;52.002;5.956;2023-09-12T05:11:41;22.00;79.60
39045;DHT22;52192;52.002;5.956;2023-09-12T05:14:07;22.10;79.60
39045;DHT22;52192;52.002;5.956;2023-09-12T05:16:33;22.10;79.50
39045;DHT22;52192;52.002;5.956;2023-09-12T05:18:59;22.10;79.40
39045;DHT22;52192;52.002;5.956;2023-09-12T05:21:25;22.20;79.60
39045;DHT22;52192;52.002;5.956;2023-09-12T05:23:50;22.20;79.90
39045;DHT22;52192;52.002;5.956;2023-09-12T05:26:19;22.20;80.00
39045;DHT22;52192;52.002;5.956;2023-09-12T05:28:45;22.30;80.10
39045;DHT22;52192;52.002;5.956;2023-09-12T05:31:10;22.30;80.10
39045;DHT22;52192;52.002;5.956;2023-09-12T05:33:36;22.30;80.00
39045;DHT22;52192;52.002;5.956;2023-09-12T05:36:02;22.30;80.10
39045;DHT22;52192;52.002;5.956;2023-09-12T05:38:28;22.40;80.40
39045;DHT22;52192;52.002;5.956;2023-09-12T05:40:54;22.40;80.60
39045;DHT22;52192;52.002;5.956;2023-09-12T05:43:20;22.40;80.50
39045;DHT22;52192;52.002;5.956;2023-09-12T05:45:45;22.40;80.60
39045;DHT22;52192;52.002;5.956;2023-09-12T05:48:11;22.40;80.60
39045;DHT22;52192;52.002;5.956;2023-09-12T05:50:37;22.40;80.80
39045;DHT22;52192;52.002;5.956;2023-09-12T05:53:03;22.40;81.00
39045;DHT22;52192;52.002;5.956;2023-09-12T05:55:28;22.40;81.20
39045;DHT22;52192;52.002;5.956;2023-09-12T05:57:54;22.50;81.30
39045;DHT22;52192;52.002;5.956;2023-09-12T06:00:20;22.40;81.10
39045;DHT22;52192;52.002;5.956;2023-09-12T06:02:47;22.50;81.20
39045;DHT22;52192;52.002;5.956;2023-09-12T06:05:14;22.50;81.20
39045;DHT22;52192;52.002;5.956;2023-09-12T06:07:40;22.50;81.00
39045;DHT22;52192;52.002;5.956;2023-09-12T06:10:09;22.60;81.10
39045;DHT22;52192;52.002;5.956;2023-09-12T06:12:35;22.60;81.30
39045;DHT22;52192;52.002;5.956;2023-09-12T06:15:04;22.50;81.40
39045;DHT22;52192;52.002;5.956;2023-09-12T06:17:31;22.60;81.70
39045;DHT22;52192;52.002;5.956;2023-09-12T06:19:56;22.60;81.90
39045;DHT22;52192;52.002;5.956;2023-09-12T06:22:22;22.50;81.90
39045;DHT22;52192;52.002;5.956;2023-09-12T06:24:51;22.50;82.10
39045;DHT22;52192;52.002;5.956;2023-09-12T06:27:17;22.50;82.30
39045;DHT22;52192;52.002;5.956;2023-09-12T06:29:47;22.50;82.30
39045;DHT22;52192;52.002;5.956;2023-09-12T06:32:17;22.50;82.40
39045;DHT22;52192;52.002;5.956;2023-09-12T06:34:43;22.50;82.40
39045;DHT22;52192;52.002;5.956;2023-09-12T06:37:10;22.50;82.30
39045;DHT22;52192;52.002;5.956;2023-09-12T06:39:36;22.50;82.30
39045;DHT22;52192;52.002;5.956;2023-09-12T06:42:02;22.50;82.40
39045;DHT22;52192;52.002;5.956;2023-09-12T06:44:28;22.50;82.50
39045;DHT22;52192;52.002;5.956;2023-09-12T06:46:54;22.60;82.40
39045;DHT22;52192;52.002;5.956;2023-09-12T06:49:19;22.60;82.20
39045;DHT22;52192;52.002;5.956;2023-09-12T06:51:45;22.60;82.10
39045;DHT22;52192;52.002;5.956;2023-09-12T06:54:10;22.50;82.10
39045;DHT22;52192;52.002;5.956;2023-09-12T06:56:36;22.60;82.10
39045;DHT22;52192;52.002;5.956;2023-09-12T06:59:04;22.60;81.90
39045;DHT22;52192;52.002;5.956;2023-09-12T07:01:30;22.70;81.90
39045;DHT22;52192;52.002;5.956;2023-09-12T07:03:56;22.70;81.90
39045;DHT22;52192;52.002;5.956;2023-09-12T07:06:22;22.70;81.90
39045;DHT22;52192;52.002;5.956;2023-09-12T07:08:48;22.70;81.90
39045;DHT22;52192;52.002;5.956;2023-09-12T07:11:14;22.70;81.90
39045;DHT22;52192;52.002;5.956;2023-09-12T07:13:40;22.70;81.90
39045;DHT22;52192;52.002;5.956;2023-09-12T07:16:05;22.80;81.90
39045;DHT22;52192;52.002;5.956;2023-09-12T07:18:31;22.80;81.80
39045;DHT22;52192;52.002;5.956;2023-09-12T07:21:02;22.80;81.60
39045;DHT22;52192;52.002;5.956;2023-09-12T07:23:28;22.80;81.50
39045;DHT22;52192;52.002;5.956;2023-09-12T07:25:55;22.80;81.50
39045;DHT22;52192;52.002;5.956;2023-09-12T07:28:23;22.80;81.50
39045;DHT22;52192;52.002;5.956;2023-09-12T07:30:49;22.90;81.50
39045;DHT22;52192;52.002;5.956;2023-09-12T07:33:15;22.90;81.50
39045;DHT22;52192;52.002;5.956;2023-09-12T07:35:41;22.90;81.40
39045;DHT22;52192;52.002;5.956;2023-09-12T07:38:06;23.00;81.30
39045;DHT22;52192;52.002;5.956;2023-09-12T07:40:32;23.10;81.20
39045;DHT22;52192;52.002;5.956;2023-09-12T07:42:58;23.10;81.20
39045;DHT22;52192;52.002;5.956;2023-09-12T07:45:23;23.10;81.10
39045;DHT22;52192;52.002;5.956;2023-09-12T07:47:49;23.10;81.30
39045;DHT22;52192;52.002;5.956;2023-09-12T07:50:15;23.20;81.30
39045;DHT22;52192;52.002;5.956;2023-09-12T07:52:41;23.20;81.20
39045;DHT22;52192;52.002;5.956;2023-09-12T07:55:07;23.30;81.20
39045;DHT22;52192;52.002;5.956;2023-09-12T07:57:33;23.30;81.10
39045;DHT22;52192;52.002;5.956;2023-09-12T08:00:00;23.30;81.10
39045;DHT22;52192;52.002;5.956;2023-09-12T08:02:26;23.30;81.10
39045;DHT22;52192;52.002;5.956;2023-09-12T08:04:52;23.20;81.30
39045;DHT22;52192;52.002;5.956;2023-09-12T08:07:19;23.30;81.30
39045;DHT22;52192;52.002;5.956;2023-09-12T08:09:53;23.30;81.20
39045;DHT22;52192;52.002;5.956;2023-09-12T08:12:20;23.30;81.10
39045;DHT22;52192;52.002;5.956;2023-09-12T08:14:46;23.30;81.10
39045;DHT22;52192;52.002;5.956;2023-09-12T08:17:12;23.40;80.90
39045;DHT22;52192;52.002;5.956;2023-09-12T08:19:38;23.40;80.60
39045;DHT22;52192;52.002;5.956;2023-09-12T08:22:07;23.40;80.50
39045;DHT22;52192;52.002;5.956;2023-09-12T08:24:34;23.50;80.50
39045;DHT22;52192;52.002;5.956;2023-09-12T08:27:00;23.60;80.40
39045;DHT22;52192;52.002;5.956;2023-09-12T08:29:28;23.70;80.10
39045;DHT22;52192;52.002;5.956;2023-09-12T08:31:54;23.80;79.60
39045;DHT22;52192;52.002;5.956;2023-09-12T08:34:21;23.80;79.20
39045;DHT22;52192;52.002;5.956;2023-09-12T08:36:47;23.90;79.40
39045;DHT22;52192;52.002;5.956;2023-09-12T08:39:14;24.00;79.40
39045;DHT22;52192;52.002;5.956;2023-09-12T08:41:44;24.10;79.10
39045;DHT22;52192;52.002;5.956;2023-09-12T08:44:13;24.10;78.90
39045;DHT22;52192;52.002;5.956;2023-09-12T08:46:42;24.20;78.90
39045;DHT22;52192;52.002;5.956;2023-09-12T08:49:08;24.20;78.70
39045;DHT22;52192;52.002;5.956;2023-09-12T08:51:39;24.30;78.60
39045;DHT22;52192;52.002;5.956;2023-09-12T08:54:06;24.40;78.50
39045;DHT22;52192;52.002;5.956;2023-09-12T08:56:36;24.50;78.20
39045;DHT22;52192;52.002;5.956;2023-09-12T08:59:04;24.70;77.80
39045;DHT22;52192;52.002;5.956;2023-09-12T09:01:31;24.90;77.40
39045;DHT22;52192;52.002;5.956;2023-09-12T09:03:58;25.00;77.10
39045;DHT22;52192;52.002;5.956;2023-09-12T09:06:25;25.00;76.90
39045;DHT22;52192;52.002;5.956;2023-09-12T09:08:51;24.90;76.70
39045;DHT22;52192;52.002;5.956;2023-09-12T09:11:18;25.00;76.80
39045;DHT22;52192;52.002;5.956;2023-09-12T09:13:43;25.10;76.80
39045;DHT22;52192;52.002;5.956;2023-09-12T09:16:13;25.20;76.50
39045;DHT22;52192;52.002;5.956;2023-09-12T09:19:02;25.30;76.30
39045;DHT22;52192;52.002;5.956;2023-09-12T09:21:31;25.40;76.20
39045;DHT22;52192;52.002;5.956;2023-09-12T09:24:00;25.50;75.80
39045;DHT22;52192;52.002;5.956;2023-09-12T09:26:49;25.60;75.40
39045;DHT22;52192;52.002;5.956;2023-09-12T09:29:17;25.80;75.00
39045;DHT22;52192;52.002;5.956;2023-09-12T09:31:44;25.90;74.70
39045;DHT22;52192;52.002;5.956;2023-09-12T09:34:15;26.10;74.40
39045;DHT22;52192;52.002;5.956;2023-09-12T09:36:50;26.20;73.40
39045;DHT22;52192;52.002;5.956;2023-09-12T09:39:18;26.20;71.80
39045;DHT22;52192;52.002;5.956;2023-09-12T09:41:48;26.10;70.30
39045;DHT22;52192;52.002;5.956;2023-09-12T09:44:14;25.90;70.00
39045;DHT22;52192;52.002;5.956;2023-09-12T09:46:43;25.70;70.80
39045;DHT22;52192;52.002;5.956;2023-09-12T09:49:16;25.50;71.40
39045;DHT22;52192;52.002;5.956;2023-09-12T09:51:43;25.60;72.10
39045;DHT22;52192;52.002;5.956;2023-09-12T09:54:11;25.90;71.90
39045;DHT22;52192;52.002;5.956;2023-09-12T09:56:54;26.10;71.50
39045;DHT22;52192;52.002;5.956;2023-09-12T09:59:25;26.20;68.60
39045;DHT22;52192;52.002;5.956;2023-09-12T10:01:55;26.30;69.50
39045;DHT22;52192;52.002;5.956;2023-09-12T10:04:23;26.40;69.10
39045;DHT22;52192;52.002;5.956;2023-09-12T10:06:49;26.40;68.00
39045;DHT22;52192;52.002;5.956;2023-09-12T10:09:16;26.50;68.30
39045;DHT22;52192;52.002;5.956;2023-09-12T10:11:46;26.50;67.80
39045;DHT22;52192;52.002;5.956;2023-09-12T10:14:15;26.40;67.90
39045;DHT22;52192;52.002;5.956;2023-09-12T10:16:48;26.30;68.30
39045;DHT22;52192;52.002;5.956;2023-09-12T10:19:25;26.20;68.70
39045;DHT22;52192;52.002;5.956;2023-09-12T10:24:29;26.30;68.50
39045;DHT22;52192;52.002;5.956;2023-09-12T10:26:56;26.40;68.30
39045;DHT22;52192;52.002;5.956;2023-09-12T10:29:22;26.50;68.00
39045;DHT22;52192;52.002;5.956;2023-09-12T10:31:48;26.80;66.70
39045;DHT22;52192;52.002;5.956;2023-09-12T10:34:15;27.00;66.90
39045;DHT22;52192;52.002;5.956;2023-09-12T10:36:42;27.10;65.40
39045;DHT22;52192;52.002;5.956;2023-09-12T10:39:10;26.90;64.20
39045;DHT22;52192;52.002;5.956;2023-09-12T10:41:40;26.70;65.10
39045;DHT22;52192;52.002;5.956;2023-09-12T10:44:26;26.60;66.10
39045;DHT22;52192;52.002;5.956;2023-09-12T10:46:53;26.70;66.70
39045;DHT22;52192;52.002;5.956;2023-09-12T10:49:20;26.80;67.00
39045;DHT22;52192;52.002;5.956;2023-09-12T10:51:46;27.00;67.50
39045;DHT22;52192;52.002;5.956;2023-09-12T10:54:23;27.10;66.00
39045;DHT22;52192;52.002;5.956;2023-09-12T10:57:09;27.10;65.80
39045;DHT22;52192;52.002;5.956;2023-09-12T11:00:09;27.30;65.70
39045;DHT22;52192;52.002;5.956;2023-09-12T11:02:39;27.50;66.10
39045;DHT22;52192;52.002;5.956;2023-09-12T11:07:58;27.90;65.70
39045;DHT22;52192;52.002;5.956;2023-09-12T11:10:25;28.30;64.90
39045;DHT22;52192;52.002;5.956;2023-09-12T11:12:55;28.60;64.50
39045;DHT22;52192;52.002;5.956;2023-09-12T11:15:24;29.00;63.50
39045;DHT22;52192;52.002;5.956;2023-09-12T11:18:02;29.20;62.20
39045;DHT22;52192;52.002;5.956;2023-09-12T11:20:49;29.40;62.00
39045;DHT22;52192;52.002;5.956;2023-09-12T11:23:16;29.30;62.10
39045;DHT22;52192;52.002;5.956;2023-09-12T11:25:42;29.20;62.30
39045;DHT22;52192;52.002;5.956;2023-09-12T11:28:08;29.20;61.80
39045;DHT22;52192;52.002;5.956;2023-09-12T11:30:34;29.40;61.90
39045;DHT22;52192;52.002;5.956;2023-09-12T11:33:03;29.60;60.50
39045;DHT22;52192;52.002;5.956;2023-09-12T11:35:29;29.70;60.20
39045;DHT22;52192;52.002;5.956;2023-09-12T11:37:57;29.70;60.00
39045;DHT22;52192;52.002;5.956;2023-09-12T11:40:42;29.70;59.50
39045;DHT22;52192;52.002;5.956;2023-09-12T11:43:24;29.80;59.20
39045;DHT22;52192;52.002;5.956;2023-09-12T11:45:51;29.90;59.40
39045;DHT22;52192;52.002;5.956;2023-09-12T11:48:18;30.10;59.50
39045;DHT22;52192;52.002;5.956;2023-09-12T11:50:50;30.20;59.40
39045;DHT22;52192;52.002;5.956;2023-09-12T11:53:22;30.10;59.20
39045;DHT22;52192;52.002;5.956;2023-09-12T11:55:57;29.70;59.10
39045;DHT22;52192;52.002;5.956;2023-09-12T11:58:25;29.40;59.50
39045;DHT22;52192;52.002;5.956;2023-09-12T12:00:54;29.00;60.00
39045;DHT22;52192;52.002;5.956;2023-09-12T12:03:24;28.90;60.30
39045;DHT22;52192;52.002;5.956;2023-09-12T12:05:51;29.10;60.00
39045;DHT22;52192;52.002;5.956;2023-09-12T12:08:18;29.60;60.00
39045;DHT22;52192;52.002;5.956;2023-09-12T12:10:44;30.10;58.60
39045;DHT22;52192;52.002;5.956;2023-09-12T12:13:18;30.40;57.30
39045;DHT22;52192;52.002;5.956;2023-09-12T12:15:44;30.60;56.50
39045;DHT22;52192;52.002;5.956;2023-09-12T12:18:10;30.50;55.60
39045;DHT22;52192;52.002;5.956;2023-09-12T12:20:36;30.40;56.20
39045;DHT22;52192;52.002;5.956;2023-09-12T12:23:02;30.60;56.20
39045;DHT22;52192;52.002;5.956;2023-09-12T12:25:32;30.70;56.00
39045;DHT22;52192;52.002;5.956;2023-09-12T12:27:58;30.60;56.20
39045;DHT22;52192;52.002;5.956;2023-09-12T12:30:24;30.30;56.60
39045;DHT22;52192;52.002;5.956;2023-09-12T12:32:50;29.90;56.30
39045;DHT22;52192;52.002;5.956;2023-09-12T12:35:23;29.50;57.10
39045;DHT22;52192;52.002;5.956;2023-09-12T12:37:50;29.20;58.00
39045;DHT22;52192;52.002;5.956;2023-09-12T12:40:17;29.00;58.50
39045;DHT22;52192;52.002;5.956;2023-09-12T12:42:44;28.90;59.00
39045;DHT22;52192;52.002;5.956;2023-09-12T12:45:22;28.90;59.50
39045;DHT22;52192;52.002;5.956;2023-09-12T12:47:59;28.80;59.60
39045;DHT22;52192;52.002;5.956;2023-09-12T12:50:25;28.70;59.80
39045;DHT22;52192;52.002;5.956;2023-09-12T12:52:51;28.60;59.80
39045;DHT22;52192;52.002;5.956;2023-09-12T12:55:20;28.50;60.80
39045;DHT22;52192;52.002;5.956;2023-09-12T12:57:48;28.40;61.40
39045;DHT22;52192;52.002;5.956;2023-09-12T13:00:16;28.30;61.60
39045;DHT22;52192;52.002;5.956;2023-09-12T13:02:44;28.30;61.20
39045;DHT22;52192;52.002;5.956;2023-09-12T13:05:26;28.20;60.80
39045;DHT22;52192;52.002;5.956;2023-09-12T13:07:52;28.10;61.70
39045;DHT22;52192;52.002;5.956;2023-09-12T13:10:20;27.90;62.60
39045;DHT22;52192;52.002;5.956;2023-09-12T13:12:46;27.80;63.30
39045;DHT22;52192;52.002;5.956;2023-09-12T13:15:13;27.60;63.90
39045;DHT22;52192;52.002;5.956;2023-09-12T13:17:41;27.50;63.90
39045;DHT22;52192;52.002;5.956;2023-09-12T13:20:08;27.40;64.20
39045;DHT22;52192;52.002;5.956;2023-09-12T13:22:34;27.40;64.40
39045;DHT22;52192;52.002;5.956;2023-09-12T13:25:00;27.30;64.70
39045;DHT22;52192;52.002;5.956;2023-09-12T13:27:26;27.40;64.80
39045;DHT22;52192;52.002;5.956;2023-09-12T13:29:52;27.40;64.40
39045;DHT22;52192;52.002;5.956;2023-09-12T13:32:17;27.50;64.30
39045;DHT22;52192;52.002;5.956;2023-09-12T13:34:45;27.90;63.70
39045;DHT22;52192;52.002;5.956;2023-09-12T13:37:10;28.20;63.10
39045;DHT22;52192;52.002;5.956;2023-09-12T13:39:36;28.70;62.20
39045;DHT22;52192;52.002;5.956;2023-09-12T13:42:02;29.10;61.00
39045;DHT22;52192;52.002;5.956;2023-09-12T13:44:29;29.70;60.40
39045;DHT22;52192;52.002;5.956;2023-09-12T13:46:55;30.10;59.90
39045;DHT22;52192;52.002;5.956;2023-09-12T13:49:21;30.40;58.50
39045;DHT22;52192;52.002;5.956;2023-09-12T13:51:46;30.50;58.10
39045;DHT22;52192;52.002;5.956;2023-09-12T13:54:12;30.70;57.90
39045;DHT22;52192;52.002;5.956;2023-09-12T13:56:43;30.70;56.70
39045;DHT22;52192;52.002;5.956;2023-09-12T13:59:10;30.50;56.60
39045;DHT22;52192;52.002;5.956;2023-09-12T14:01:37;30.40;56.70
39045;DHT22;52192;52.002;5.956;2023-09-12T14:04:03;30.40;54.90
39045;DHT22;52192;52.002;5.956;2023-09-12T14:06:29;30.40;54.80
39045;DHT22;52192;52.002;5.956;2023-09-12T14:08:55;30.40;54.20
39045;DHT22;52192;52.002;5.956;2023-09-12T14:11:20;30.60;54.20
39045;DHT22;52192;52.002;5.956;2023-09-12T14:13:46;30.40;54.80
39045;DHT22;52192;52.002;5.956;2023-09-12T14:16:12;30.20;54.70
39045;DHT22;52192;52.002;5.956;2023-09-12T14:18:37;29.80;55.50
39045;DHT22;52192;52.002;5.956;2023-09-12T14:21:03;29.70;56.80
39045;DHT22;52192;52.002;5.956;2023-09-12T14:23:29;29.80;57.10
39045;DHT22;52192;52.002;5.956;2023-09-12T14:25:54;29.90;57.20
39045;DHT22;52192;52.002;5.956;2023-09-12T14:28:20;29.90;55.90
39045;DHT22;52192;52.002;5.956;2023-09-12T14:30:46;29.70;56.10
39045;DHT22;52192;52.002;5.956;2023-09-12T14:33:14;29.50;57.50
39045;DHT22;52192;52.002;5.956;2023-09-12T14:35:40;29.30;57.70
39045;DHT22;52192;52.002;5.956;2023-09-12T14:38:07;29.20;57.50
39045;DHT22;52192;52.002;5.956;2023-09-12T14:40:33;29.00;57.50
39045;DHT22;52192;52.002;5.956;2023-09-12T14:42:59;28.90;58.90
39045;DHT22;52192;52.002;5.956;2023-09-12T14:45:27;28.80;59.20
39045;DHT22;52192;52.002;5.956;2023-09-12T14:47:53;28.70;59.50
39045;DHT22;52192;52.002;5.956;2023-09-12T14:50:21;28.70;59.70
39045;DHT22;52192;52.002;5.956;2023-09-12T14:52:49;28.60;60.00
39045;DHT22;52192;52.002;5.956;2023-09-12T14:55:15;28.60;60.40
39045;DHT22;52192;52.002;5.956;2023-09-12T14:57:41;28.50;61.30
39045;DHT22;52192;52.002;5.956;2023-09-12T15:00:07;28.40;61.20
39045;DHT22;52192;52.002;5.956;2023-09-12T15:02:33;28.30;61.30
39045;DHT22;52192;52.002;5.956;2023-09-12T15:05:00;28.30;61.60
39045;DHT22;52192;52.002;5.956;2023-09-12T15:07:27;28.20;62.10
39045;DHT22;52192;52.002;5.956;2023-09-12T15:09:55;28.20;62.50
39045;DHT22;52192;52.002;5.956;2023-09-12T15:12:20;28.10;62.80
39045;DHT22;52192;52.002;5.956;2023-09-12T15:14:46;28.10;63.10
39045;DHT22;52192;52.002;5.956;2023-09-12T15:17:12;28.00;63.00
39045;DHT22;52192;52.002;5.956;2023-09-12T15:19:37;28.00;63.20
39045;DHT22;52192;52.002;5.956;2023-09-12T15:22:03;27.90;63.20
39045;DHT22;52192;52.002;5.956;2023-09-12T15:24:29;27.90;63.10
39045;DHT22;52192;52.002;5.956;2023-09-12T15:26:55;27.90;63.20
39045;DHT22;52192;52.002;5.956;2023-09-12T15:29:21;27.90;63.20
39045;DHT22;52192;52.002;5.956;2023-09-12T15:31:46;28.00;63.20
39045;DHT22;52192;52.002;5.956;2023-09-12T15:34:12;28.00;63.30
39045;DHT22;52192;52.002;5.956;2023-09-12T15:36:44;28.00;63.30